AirNav   Everest Fuels
 
 989 users online  

KUYF Madison County Airport
London, Ohio, USA

GOING TO LONDON?


FAA INFORMATION EFFECTIVE 05 NOVEMBER 2020

Location

FAA Identifier: UYF
Lat/Long: 39-55-57.8000N 083-27-43.2000W
39-55.963333N 083-27.720000W
39.9327222,-83.4620000
(estimated)
Elevation: 1081.6 ft. / 329.7 m (surveyed)
Variation: 06W (2000)
From city: 3 miles N of LONDON, OH
Time zone: UTC -5 (UTC -4 during Daylight Saving Time)
Zip code: 43140

Airport Operations

Airport use: Open to the public
Control tower: no
ARTCC: INDIANAPOLIS CENTER
FSS: DAYTON FLIGHT SERVICE STATION
NOTAMs facility: DAY (NOTAM-D service available)
Attendance: MON-FRI 0800-1600, ALL SAT-SUN 0900-1700
Wind indicator: lighted
Segmented circle: no
Lights: ACTVT REIL RWY 09 & 27; MIRL RWY 09/27 - CTAF. PAPI RWY 09 & 27 OPR CONSLY.
Beacon: white-green (lighted land airport)
Operates sunset to sunrise.

Airport Communications

CTAF/UNICOM: 123.0
WX AWOS-3PT: 120.85 (740-852-2844)
COLUMBUS APPROACH: 118.85
COLUMBUS DEPARTURE: 118.85
CLASS C: 118.85
IC: 118.85
WX AWOS-3 at TZR (15 nm E): 135.925 (614-878-1722)
WX AWOS-3 at I74 (18 nm NW): 118.325 (937-484-5863)
WX AWOS-3 at MRT (18 nm N): 119.275 (937-644-2967)
WX AWOS-3PT at SGH (18 nm W): 134.975 (937-324-4532)
WX ASOS at OSU (20 nm NE): 121.35 (614-451-2465)

Nearby radio navigation aids

VOR radial/distance  VOR name  Freq  Var
XUBr322/(33.0)YELLOW BUD VOR112.5005W
MXQr031/34.0MIDWEST VOR/DME112.9004W
RODr134/34.1ROSEWOOD VORTAC117.5005W

 
NDB name  Hdg/Dist  Freq  Var  ID
BOUTN305/13.723005WBU -... ..-
FULER240/14.851505WOS --- ...
CLARK COUNTY080/15.034104WCCJ -.-. -.-. .---
COURT HOUSE357/20.241406WCSS -.-. ... ...

Airport Services

Fuel available: 100LL JET-A
FUEL AVBL H24 SELF SER.
Parking: hangars and tiedowns
Airframe service: MINOR
Powerplant service: MINOR
Bottled oxygen: NONE
Bulk oxygen: NONE

Runway Information

Runway 9/27

Dimensions: 4001 x 75 ft. / 1220 x 23 m
Surface: asphalt, in fair condition
Weight bearing capacity: 
Single wheel: 30.0
Double wheel: 40.0
Runway edge lights: medium intensity
Runway edge markings: FADED.
RUNWAY 9  RUNWAY 27
Latitude: 39-55.943358N39-55.982148N
Longitude: 083-28.146760W083-27.292362W
Elevation: 1081.5 ft.1051.0 ft.
Traffic pattern: leftleft
Runway heading: 093 magnetic, 087 true273 magnetic, 267 true
Markings: nonprecision, in poor conditionnonprecision, in poor condition
Visual slope indicator: 4-light PAPI on left (3.00 degrees glide path)4-light PAPI on left (3.00 degrees glide path)
Runway end identifier lights: yesyes
Touchdown point: yes, no lightsyes, no lights
Obstructions: 10 ft. crops, 201 ft. from runway, 200 ft. right of centerline
+10 FT CROPS, 0-200 FT DIST, 200 FT R; +8-10 FT CROPS, 65-200 FT DIST, 200 FT L.
5 ft. crops, 201 ft. from runway, 194 ft. left of centerline
+5-7 FT CROPS, 0-200 FT DIST, 194 FT L; +3-12 FT BRUSH/TREES, 60-200 FT DIST, 175 FT R.

Airport Ownership and Management from official FAA records

Ownership: Publicly-owned
Owner: MADISON COUNTY AIRPORT AUTH
1281 US HIGHWAY 40 SW
LONDON, OH 43140-9213
Phone 740-852-5040
Manager: JOHN DUHL
1281 US HIGHWAY 40 SW
LONDON, OH 43140-9213
Phone 740-852-5040
AIRPORT@CO.MADISON.OH.US.

Airport Operational Statistics

Aircraft based on the field: 33
Single engine airplanes: 32
Helicopters: 1
    
Aircraft operations: avg 113/day *
51% local general aviation
44% transient general aviation
5% military
<1% air taxi
* for 12-month period ending 10 September 2020

Additional Remarks

FOR CD CTC COLUMBUS APCH AT 614-338-8537.

Instrument Procedures

NOTE: All procedures below are presented as PDF files. If you need a reader for these files, you should download the free Adobe Reader.

NOT FOR NAVIGATION. Please procure official charts for flight.
FAA instrument procedures published for use from 05 November 2020 at 0901Z to 03 December 2020 at 0900z.

 
IAPs - Instrument Approach Procedures
RNAV (GPS) RWY 09   download (233KB)
RNAV (GPS) RWY 27   download (225KB)
NOTE: Special Take-Off Minimums/Departure Procedures apply   download (545KB)

Other nearby airports with instrument procedures:

KTZR - Bolton Field Airport (15 nm E)
I74 - Grimes Field Airport (18 nm NW)
KMRT - Union County Airport (18 nm N)
KSGH - Springfield-Beckley Municipal Airport (18 nm W)
KOSU - Ohio State University Airport (20 nm NE)
 
Loc | Ops | Rwys | IFR | FBO | Links
Com | Nav | Svcs | Stats | Notes
Area around KUYF (Madison County Airport)
 
Road maps at: MapQuest Bing Google
 
Aerial photo
WARNING: Photo may not be current or correct
Aerial photo of KUYF (Madison County Airport)
Do you have a better or more recent aerial photo of Madison County Airport that you would like to share? If so, please send us your photo.

 
Sectional chart

 
Airport distance calculator
Flying to Madison County Airport? Find the distance to fly.

From to KUYF

Sunrise and sunset
Times for 28-Nov-2020
 Local
(UTC-5)
 Zulu
(UTC)
Morning civil twilight07:0512:05
Sunrise07:3512:35
Sunset17:0922:09
Evening civil twilight17:3922:39

Current date and time
Zulu (UTC)  28-Nov-2020 22:27:14
Local (UTC-5)  28-Nov-2020 17:27:14
 
METAR
KUYF 282215Z AUTO 21005KT 10SM CLR 03/M01 A3015 RMK AO2
KTZR 
15nm E 
282147Z 19004KT 10SM CLR 06/00 A3017
KSGH 
18nm SW 
282156Z AUTO 20004KT 10SM CLR 06/M02 A3016 RMK AO2 SLP222 T00611022
KI74 
18nm NW 
282215Z AUTO 00000KT 10SM CLR 05/M02 A3015 RMK AO2
KMRT 
18nm N 
282215Z AUTO 22004KT 10SM CLR 05/M01 A3016 RMK AO2 T00481011
KOSU 
20nm NE 
282153Z 23005KT 10SM CLR 07/M02 A3016 RMK AO2 SLP218 T00671017
TAF
KLCK 
26nm E 
281720Z 2818/2918 26005KT P6SM FEW020 FM282100 23005KT P6SM SKC FM290000 20004KT P6SM SKC FM291600 19005KT P6SM SCT250
KCMH 
27nm E 
281720Z 2818/2918 26005KT P6SM FEW020 FM282100 23005KT P6SM SKC FM290000 20004KT P6SM SKC FM291600 19005KT P6SM SCT250
KFFO 
27nm W 
281901Z 2819/3001 25006KT 9999 SKC QNH3015INS BECMG 2823/2824 VRB06KT 9999 SKC QNH3014INS BECMG 2912/2913 19009KT 9999 SKC QNH3000INS BECMG 2923/2924 14009KT 9999 FEW250 QNH2985INS TX09/2820Z TNM01/2911Z
NOTAMs
Click for the latest NOTAMs
NOTAMs are issued by the DoD/FAA and will open in a separate window not controlled by AirNav.

 

 
 

FBO, Fuel Providers, and Aircraft Ground Support

  
 Business Name 
 
 Contact 
 
 Services / Description 
 
Fuel Prices
 
Comments
  
 Madison County Airport
740-852-5040
[web site]
[email]
Airport management, Aviation fuel, Aircraft parking (ramp or tiedown), Hangar leasing / sales, ...

More info about Madison County Airport
EPIC
100LL Jet A
AS $4.19 $3.25 
 Updated 20-Nov-2020
 
   2 read write
AS=Assisted/Self Service
Update Fuel Prices
 

Would you like to see your business listed on this page?

 If your business provides an interesting product or service to pilots, flight crews, aircraft, or users of the Madison County Airport, you should consider listing it here.  To start the listing process, click on the button below
 
Add a business
 

Other Pages about Madison County Airport

co.madison.oh.us/airport
 
Update a link
 
Copyright © AirNav, LLC. All rights reserved. Privacy Policy  Contact